createdAt,value
2018-05-10T00:01:01.326Z,48.53
2018-05-10T00:03:31.055Z,46.73
2018-05-10T00:06:00.395Z,45.83
2018-05-10T00:08:31.823Z,46.53
2018-05-10T00:11:01.209Z,45.77
2018-05-10T00:13:30.347Z,46.37
2018-05-10T00:16:01.319Z,45.53
2018-05-10T00:18:31.012Z,44.70
2018-05-10T00:21:00.189Z,43.90
2018-05-10T00:23:31.564Z,44.63
2018-05-10T00:26:02.444Z,41.67
2018-05-10T00:28:33.179Z,42.40
2018-05-10T00:31:03.507Z,41.30
2018-05-10T00:33:34.207Z,40.67
2018-05-10T00:36:05.974Z,40.57
2018-05-10T00:38:38.443Z,39.80
2018-05-10T00:41:08.405Z,38.67
2018-05-10T00:43:39.258Z,39.53
2018-05-10T00:46:08.744Z,39.07
2018-05-10T00:48:40.219Z,38.27
2018-05-10T00:51:11.243Z,37.53
2018-05-10T00:53:42.292Z,47.10
2018-05-10T00:56:13.238Z,37.10
2018-05-10T00:58:43.907Z,34.53
2018-05-10T01:01:14.739Z,32.90
2018-05-10T01:03:44.697Z,34.50
2018-05-10T01:06:15.181Z,32.00
2018-05-10T01:08:46.635Z,32.53
2018-05-10T01:11:15.675Z,34.77
2018-05-10T01:13:46.365Z,34.07
2018-05-10T01:16:17.553Z,35.43
2018-05-10T01:18:46.577Z,35.60
2018-05-10T01:21:17.660Z,35.83
2018-05-10T01:23:49.117Z,36.67
2018-05-10T01:26:18.605Z,35.17
2018-05-10T01:28:49.451Z,35.17
2018-05-10T01:31:20.822Z,38.00
2018-05-10T01:33:49.975Z,37.70
2018-05-10T01:36:22.045Z,36.73
2018-05-10T01:38:52.467Z,38.73
2018-05-10T01:41:23.394Z,36.50
2018-05-10T01:43:52.934Z,34.47
2018-05-10T01:46:22.014Z,34.97
2018-05-10T01:48:53.068Z,32.83
2018-05-10T01:51:22.193Z,32.53
2018-05-10T01:53:52.996Z,33.50
2018-05-10T01:56:24.101Z,31.37
2018-05-10T01:58:53.786Z,33.10
2018-05-10T02:01:23.473Z,31.53
2018-05-10T02:03:54.504Z,31.77
2018-05-10T02:06:25.411Z,28.00
2018-05-10T02:08:56.407Z,28.03
2018-05-10T02:11:27.920Z,25.97
2018-05-10T02:13:58.222Z,27.80
2018-05-10T02:16:28.267Z,23.30
2018-05-10T02:18:59.237Z,22.63
2018-05-10T02:21:28.132Z,21.97
2018-05-10T02:23:57.498Z,20.70
2018-05-10T02:26:26.745Z,18.93
2018-05-10T02:28:57.703Z,19.73
2018-05-10T02:31:27.376Z,18.40
2018-05-10T02:33:58.948Z,22.58
2018-05-10T02:36:30.665Z,19.07
2018-05-10T02:39:01.530Z,17.77
2018-05-10T02:41:32.832Z,17.77
2018-05-10T02:44:02.245Z,17.30
2018-05-10T02:46:31.628Z,17.00
2018-05-10T02:49:02.480Z,18.30
2018-05-10T02:51:31.950Z,19.00
2018-05-10T02:54:01.224Z,21.30
2018-05-10T02:56:32.207Z,20.00
2018-05-10T02:59:01.860Z,20.97
2018-05-10T03:01:34.131Z,19.70
2018-05-10T03:04:05.378Z,22.50
2018-05-10T03:06:34.651Z,22.67
2018-05-10T03:09:05.509Z,23.07
2018-05-10T03:11:37.137Z,22.43
2018-05-10T03:14:07.839Z,24.50
2018-05-10T03:16:37.240Z,26.37
2018-05-10T03:19:09.732Z,27.80
2018-05-10T03:21:39.132Z,29.87
2018-05-10T03:24:10.098Z,30.10
2018-05-10T03:26:41.233Z,29.53
2018-05-10T03:29:12.619Z,26.63
2018-05-10T03:31:43.526Z,21.73
2018-05-10T03:34:12.880Z,20.77
2018-05-10T03:36:42.740Z,19.67
2018-05-10T03:39:11.964Z,19.03
2018-05-10T03:41:43.460Z,18.40
2018-05-10T03:44:14.314Z,20.20
2018-05-10T03:46:46.278Z,15.77
2018-05-10T03:49:17.385Z,15.20
2018-05-10T03:51:47.380Z,13.87
2018-05-10T03:54:17.071Z,13.43
2018-05-10T03:56:46.238Z,14.03
2018-05-10T03:59:17.353Z,13.20
2018-05-10T04:01:46.526Z,11.97
2018-05-10T04:04:57.965Z,11.70
2018-05-10T04:08:04.695Z,11.03
2018-05-10T04:11:21.818Z,9.87
2018-05-10T04:13:52.928Z,10.10
2018-05-10T04:16:25.063Z,8.83
2018-05-10T04:18:56.216Z,10.52
2018-05-10T04:21:26.638Z,8.67
2018-05-10T04:23:56.348Z,8.03
2018-05-10T04:26:27.093Z,8.00
2018-05-10T04:28:56.805Z,10.38
2018-05-10T04:31:27.747Z,9.03
2018-05-10T04:33:57.149Z,7.97
2018-05-10T04:36:27.185Z,8.63
2018-05-10T04:38:57.137Z,7.87
2018-05-10T04:41:28.155Z,8.30
2018-05-10T04:44:00.275Z,8.93
2018-05-10T04:46:29.346Z,9.13
2018-05-10T04:48:59.134Z,7.77
2018-05-10T04:51:29.106Z,8.57
2018-05-10T04:54:00.171Z,7.23
2018-05-10T04:56:31.242Z,7.97
2018-05-10T04:59:00.292Z,7.50
2018-05-10T05:01:29.531Z,7.37
2018-05-10T05:04:00.624Z,8.07
2018-05-10T05:06:30.439Z,7.00
2018-05-10T05:08:59.685Z,6.70
2018-05-10T05:11:29.201Z,5.50
2018-05-10T05:13:59.932Z,7.30
2018-05-10T05:16:31.024Z,6.37
2018-05-10T05:19:01.050Z,7.40
2018-05-10T05:21:30.610Z,6.70
2018-05-10T05:24:01.889Z,5.97
2018-05-10T05:26:32.230Z,6.20
2018-05-10T05:29:03.260Z,5.90
2018-05-10T05:31:32.573Z,5.20
2018-05-10T05:34:03.225Z,4.83
2018-05-10T05:36:32.655Z,4.73
2018-05-10T05:39:03.093Z,4.60
2018-05-10T05:41:34.248Z,4.23
2018-05-10T05:44:06.412Z,3.90
2018-05-10T05:46:36.881Z,4.53
2018-05-10T05:49:07.541Z,3.47
2018-05-10T05:51:39.651Z,3.37
2018-05-10T05:54:08.986Z,3.47
2018-05-10T05:56:40.892Z,3.97
2018-05-10T05:59:12.395Z,4.10
2018-05-10T06:01:43.252Z,3.40
2018-05-10T06:04:14.716Z,3.47
2018-05-10T06:06:44.480Z,3.80
2018-05-10T06:09:15.262Z,4.43
2018-05-10T06:11:44.533Z,4.27
2018-05-10T06:14:15.219Z,3.50
2018-05-10T06:16:45.088Z,4.30
2018-05-10T06:19:14.473Z,4.43
2018-05-10T06:21:45.421Z,5.03
2018-05-10T06:24:16.313Z,5.67
2018-05-10T06:26:47.496Z,5.27
2018-05-10T06:29:17.002Z,6.03
2018-05-10T06:31:47.967Z,6.20
2018-05-10T06:34:17.622Z,6.10
2018-05-10T06:36:46.790Z,6.33
2018-05-10T06:39:17.043Z,6.77
2018-05-10T06:41:46.073Z,6.07
2018-05-10T06:44:16.952Z,7.30
2018-05-10T06:46:47.789Z,6.87
2018-05-10T06:49:18.024Z,6.67
2018-05-10T06:51:48.881Z,6.63
2018-05-10T06:54:18.404Z,7.73
2018-05-10T06:56:48.385Z,8.23
2018-05-10T06:59:17.706Z,7.10
2018-05-10T07:01:47.414Z,7.47
2018-05-10T07:04:18.489Z,7.20
2018-05-10T07:06:48.456Z,7.30
2018-05-10T07:09:19.051Z,7.70
2018-05-10T07:11:49.961Z,8.07
2018-05-10T07:14:21.125Z,7.93
2018-05-10T07:16:51.030Z,7.40
2018-05-10T07:19:20.491Z,6.70
2018-05-10T07:21:49.923Z,6.60
2018-05-10T07:24:21.359Z,8.73
2018-05-10T07:26:50.839Z,7.70
2018-05-10T07:29:22.342Z,7.13
2018-05-10T07:31:53.036Z,6.67
2018-05-10T07:34:24.356Z,7.07
2018-05-10T07:36:53.819Z,7.00
2018-05-10T07:39:24.747Z,6.23
2018-05-10T07:41:54.094Z,7.17
2018-05-10T07:44:24.440Z,7.47
2018-05-10T07:46:55.399Z,8.83
2018-05-10T07:49:25.126Z,8.10
2018-05-10T07:51:54.640Z,7.60
2018-05-10T07:54:24.036Z,7.73
2018-05-10T07:56:55.944Z,7.53
2018-05-10T07:59:27.510Z,8.20
2018-05-10T08:01:57.232Z,9.10
2018-05-10T08:04:28.171Z,9.00
2018-05-10T08:06:59.044Z,9.23
2018-05-10T08:09:29.424Z,9.80
2018-05-10T08:12:00.889Z,11.93
2018-05-10T08:14:30.095Z,11.90
2018-05-10T08:17:01.318Z,11.97
2018-05-10T08:19:32.014Z,12.50
2018-05-10T08:22:02.924Z,13.00
2018-05-10T08:24:33.876Z,14.93
2018-05-10T08:27:03.500Z,14.70
2018-05-10T08:29:34.881Z,16.30
2018-05-10T08:32:04.821Z,16.90
2018-05-10T08:34:36.427Z,17.23
2018-05-10T08:37:05.520Z,18.43
2018-05-10T08:39:35.425Z,18.63
2018-05-10T08:42:07.107Z,18.43
2018-05-10T08:44:39.202Z,19.10
2018-05-10T08:47:10.087Z,21.70
2018-05-10T08:49:41.150Z,18.97
2018-05-10T08:52:11.827Z,21.97
2018-05-10T08:54:42.252Z,22.17
2018-05-10T08:57:13.579Z,22.70
2018-05-10T08:59:42.990Z,23.20
2018-05-10T09:02:13.705Z,21.73
2018-05-10T09:04:42.977Z,22.75
2018-05-10T09:07:14.901Z,23.35
2018-05-10T09:09:44.618Z,23.33
2018-05-10T09:12:16.295Z,22.90
2018-05-10T09:14:45.384Z,23.97
2018-05-10T09:17:15.862Z,23.33
2018-05-10T09:19:45.099Z,21.83
2018-05-10T09:22:14.446Z,21.60
2018-05-10T09:24:44.212Z,22.70
2018-05-10T09:27:14.266Z,23.60
2018-05-10T09:29:44.986Z,22.07
2018-05-10T09:32:15.625Z,22.10
2018-05-10T09:34:45.770Z,20.30
2018-05-10T09:37:16.775Z,21.20
2018-05-10T09:39:46.351Z,21.80
2018-05-10T09:42:15.808Z,20.35
2018-05-10T09:44:46.745Z,20.62
2018-05-10T09:47:17.588Z,20.20
2018-05-10T09:49:47.450Z,19.15
2018-05-10T09:52:17.314Z,18.67
2018-05-10T09:54:47.163Z,18.40
2018-05-10T09:57:18.651Z,18.55
2018-05-10T09:59:49.604Z,18.95
2018-05-10T10:02:18.669Z,19.55
2018-05-10T10:04:50.111Z,19.23
2018-05-10T10:07:19.991Z,18.90
2018-05-10T10:09:51.176Z,18.25
2018-05-10T10:12:22.034Z,17.15
2018-05-10T10:14:52.389Z,17.98
2018-05-10T10:17:23.254Z,19.27
2018-05-10T10:19:53.962Z,19.10
2018-05-10T10:22:24.764Z,20.33
2018-05-10T10:24:54.038Z,20.67
2018-05-10T10:27:24.952Z,20.35
2018-05-10T10:29:56.014Z,21.92
2018-05-10T10:32:27.244Z,22.05
2018-05-10T10:34:58.212Z,22.77
2018-05-10T10:37:27.575Z,23.12
2018-05-10T10:39:58.549Z,29.27
2018-05-10T10:42:27.618Z,23.15
2018-05-10T10:44:56.998Z,23.98
2018-05-10T10:47:26.566Z,24.17
2018-05-10T10:49:56.255Z,23.87
2018-05-10T10:52:25.913Z,20.85
2018-05-10T10:54:54.953Z,19.45
2018-05-10T10:57:24.338Z,15.57
2018-05-10T10:59:53.539Z,14.18
2018-05-10T11:02:24.315Z,14.50
2018-05-10T11:04:55.143Z,14.10
2018-05-10T11:07:24.696Z,15.77
2018-05-10T11:09:53.796Z,20.62
2018-05-10T11:12:23.252Z,22.17
2018-05-10T11:14:54.232Z,17.60
2018-05-10T11:17:23.534Z,18.75
2018-05-10T11:19:54.455Z,19.50
2018-05-10T11:22:25.862Z,20.48
2018-05-10T11:24:56.200Z,22.73
2018-05-10T11:27:25.605Z,21.55
2018-05-10T11:29:56.475Z,22.87
2018-05-10T11:32:27.213Z,20.42
2018-05-10T11:34:58.715Z,18.70
2018-05-10T11:37:29.509Z,18.87
2018-05-10T11:39:58.670Z,18.10
2018-05-10T11:42:27.947Z,18.27
2018-05-10T11:44:58.705Z,16.90
2018-05-10T11:47:29.582Z,18.23
2018-05-10T11:50:00.826Z,17.77
2018-05-10T11:52:29.996Z,17.40
2018-05-10T11:54:59.811Z,17.45
2018-05-10T11:57:30.582Z,14.98
2018-05-10T11:59:59.927Z,15.75
2018-05-10T12:02:28.982Z,16.37
2018-05-10T12:05:00.008Z,15.45
2018-05-10T12:07:31.828Z,15.63
2018-05-10T12:10:00.999Z,15.70
2018-05-10T12:12:32.216Z,16.35
2018-05-10T12:15:02.170Z,15.80
2018-05-10T12:17:32.020Z,15.27
2018-05-10T12:20:02.862Z,14.85
2018-05-10T12:22:31.879Z,14.23
2018-05-10T12:25:01.716Z,13.68
2018-05-10T12:27:30.880Z,13.15
2018-05-10T12:30:01.416Z,12.25
2018-05-10T12:32:31.309Z,11.25
2018-05-10T12:35:00.212Z,12.15
2018-05-10T12:37:29.623Z,56.37
2018-05-10T12:40:00.715Z,10.32
2018-05-10T12:42:30.806Z,10.13
2018-05-10T12:45:01.701Z,9.52
2018-05-10T12:47:30.862Z,10.50
2018-05-10T12:50:02.375Z,9.63
2018-05-10T12:52:31.834Z,8.90
2018-05-10T12:55:02.613Z,9.35
2018-05-10T12:57:33.330Z,8.68
2018-05-10T13:00:05.704Z,8.93
2018-05-10T13:02:36.952Z,8.05
2018-05-10T13:05:07.610Z,7.97
2018-05-10T13:07:36.687Z,10.07
2018-05-10T13:10:07.738Z,9.00
2018-05-10T13:12:38.677Z,7.62
2018-05-10T13:15:09.794Z,7.60
2018-05-10T13:17:38.926Z,19.00
2018-05-10T13:20:08.350Z,8.32
2018-05-10T13:22:39.023Z,6.45
2018-05-10T13:25:08.370Z,6.37
2018-05-10T13:27:38.385Z,6.55
2018-05-10T13:30:08.401Z,7.20
2018-05-10T13:32:38.980Z,6.55
2018-05-10T13:35:08.355Z,6.07
2018-05-10T13:37:38.212Z,5.68
2018-05-10T13:40:08.129Z,5.53
2018-05-10T13:42:37.552Z,5.78
2018-05-10T13:45:08.455Z,5.87
2018-05-10T13:47:39.941Z,5.80
2018-05-10T13:50:11.105Z,5.68
2018-05-10T13:52:41.074Z,5.82
2018-05-10T13:55:11.828Z,5.40
2018-05-10T13:57:42.451Z,5.53
2018-05-10T14:00:11.813Z,5.00
2018-05-10T14:02:42.875Z,5.28
2018-05-10T14:05:14.328Z,5.25
2018-05-10T14:07:45.541Z,4.82
2018-05-10T14:10:14.559Z,4.60
2018-05-10T14:12:45.575Z,4.70
2018-05-10T14:15:16.907Z,4.72
2018-05-10T14:17:46.262Z,3.67
2018-05-10T14:20:17.447Z,3.53
2018-05-10T14:22:47.120Z,3.87
2018-05-10T14:25:17.890Z,4.12
2018-05-10T14:27:48.747Z,3.62
2018-05-10T14:30:19.683Z,3.70
2018-05-10T14:32:50.426Z,3.78
2018-05-10T14:35:21.394Z,3.40
2018-05-10T14:37:51.316Z,4.00
2018-05-10T14:40:21.210Z,3.40
2018-05-10T14:42:52.602Z,3.22
2018-05-10T14:45:22.236Z,3.10
2018-05-10T14:47:52.046Z,3.20
2018-05-10T14:50:23.903Z,2.95
2018-05-10T14:52:54.401Z,2.20
2018-05-10T14:55:24.831Z,2.92
2018-05-10T14:57:55.695Z,3.35
2018-05-10T15:00:25.419Z,2.83
2018-05-10T15:02:56.152Z,2.45
2018-05-10T15:05:25.866Z,2.53
2018-05-10T15:07:55.298Z,2.28
2018-05-10T15:10:26.205Z,2.53
2018-05-10T15:12:57.584Z,2.37
2018-05-10T15:15:28.491Z,2.17
2018-05-10T15:17:59.553Z,1.95
2018-05-10T15:20:30.530Z,2.30
2018-05-10T15:23:00.131Z,2.55
2018-05-10T15:25:30.582Z,2.50
2018-05-10T15:28:01.811Z,2.60
2018-05-10T15:30:32.172Z,2.75
2018-05-10T15:33:02.826Z,2.40
2018-05-10T15:35:33.918Z,2.47
2018-05-10T15:38:03.290Z,2.92
2018-05-10T15:40:33.737Z,2.30
2018-05-10T15:43:03.251Z,2.17
2018-05-10T15:45:35.191Z,2.60
2018-05-10T15:48:06.071Z,3.15
2018-05-10T15:50:36.083Z,2.12
2018-05-10T15:53:06.767Z,2.33
2018-05-10T15:55:36.143Z,2.55
2018-05-10T15:58:06.963Z,2.80
2018-05-10T16:00:36.022Z,3.25
2018-05-10T16:03:08.124Z,3.40
2018-05-10T16:05:39.568Z,3.75
2018-05-10T16:08:10.453Z,3.30
2018-05-10T16:10:41.073Z,3.62
2018-05-10T16:13:12.576Z,3.83
2018-05-10T16:15:44.459Z,3.70
2018-05-10T16:18:15.232Z,3.17
2018-05-10T16:20:44.370Z,3.67
2018-05-10T16:23:15.267Z,3.97
2018-05-10T16:25:44.375Z,3.72
2018-05-10T16:28:13.922Z,3.45
2018-05-10T16:30:43.083Z,4.45
2018-05-10T16:33:13.996Z,3.10
2018-05-10T16:35:43.106Z,4.03
2018-05-10T16:38:14.044Z,4.15
2018-05-10T16:40:45.496Z,4.22
2018-05-10T16:43:16.984Z,4.15
2018-05-10T16:45:46.095Z,3.85
2018-05-10T16:48:17.614Z,3.55
2018-05-10T16:50:49.664Z,3.80
2018-05-10T16:53:19.010Z,3.37
2018-05-10T16:55:49.687Z,3.95
2018-05-10T16:58:18.885Z,4.85
2018-05-10T17:00:48.820Z,5.53
2018-05-10T17:03:19.447Z,4.22
2018-05-10T17:05:49.185Z,4.30
2018-05-10T17:08:20.194Z,3.95
2018-05-10T17:10:49.610Z,4.57
2018-05-10T17:13:19.068Z,4.87
2018-05-10T17:15:48.373Z,4.80
2018-05-10T17:18:17.699Z,5.25
2018-05-10T17:20:48.662Z,5.50
2018-05-10T17:23:19.384Z,5.07
2018-05-10T17:25:50.500Z,4.90
2018-05-10T17:28:21.518Z,4.95
2018-05-10T17:30:52.167Z,5.40
2018-05-10T17:33:25.498Z,4.80
2018-05-10T17:35:55.257Z,4.18
2018-05-10T17:38:24.601Z,4.70
2018-05-10T17:40:55.407Z,4.35
2018-05-10T17:43:25.842Z,4.62
2018-05-10T17:45:55.698Z,4.65
2018-05-10T17:48:26.441Z,5.05
2018-05-10T17:50:57.651Z,5.45
2018-05-10T17:53:28.956Z,4.60
2018-05-10T17:55:59.656Z,5.00
2018-05-10T17:58:31.002Z,4.50
2018-05-10T18:01:01.745Z,3.70
2018-05-10T18:03:32.346Z,4.53
2018-05-10T18:06:03.309Z,3.50
2018-05-10T18:08:32.662Z,3.87
2018-05-10T18:11:03.930Z,3.47
2018-05-10T18:13:33.396Z,3.63
2018-05-10T18:16:02.715Z,4.17
2018-05-10T18:18:33.378Z,3.07
2018-05-10T18:21:04.012Z,3.63
2018-05-10T18:23:33.929Z,3.53
2018-05-10T18:26:04.731Z,3.80
2018-05-10T18:28:35.977Z,3.83
2018-05-10T18:31:06.894Z,3.70
2018-05-10T18:33:37.723Z,3.40
2018-05-10T18:36:08.910Z,3.00
2018-05-10T18:38:38.337Z,3.43
2018-05-10T18:41:07.424Z,3.47
2018-05-10T18:43:36.851Z,3.20
2018-05-10T18:46:05.941Z,2.77
2018-05-10T18:48:37.418Z,2.87
2018-05-10T18:51:08.327Z,3.03
2018-05-10T18:53:37.543Z,3.57
2018-05-10T18:56:06.922Z,2.80
2018-05-10T18:58:36.342Z,2.70
2018-05-10T19:01:06.079Z,3.13
2018-05-10T19:03:36.889Z,2.87
2018-05-10T19:06:08.449Z,3.23
2018-05-10T19:08:39.375Z,2.80
2018-05-10T19:11:10.764Z,2.77
2018-05-10T19:13:40.702Z,3.27
2018-05-10T19:16:10.163Z,3.27
2018-05-10T19:18:40.961Z,3.00
2018-05-10T19:21:10.996Z,2.37
2018-05-10T19:23:40.728Z,3.00
2018-05-10T19:26:12.211Z,3.03
2018-05-10T19:28:42.240Z,2.87
2018-05-10T19:31:12.254Z,2.67
2018-05-10T19:33:43.232Z,3.10
2018-05-10T19:36:14.041Z,2.93
2018-05-10T19:38:43.818Z,3.23
2018-05-10T19:41:15.346Z,2.90
2018-05-10T19:43:44.698Z,3.50
2018-05-10T19:46:14.179Z,2.77
2018-05-10T19:48:46.161Z,3.03
2018-05-10T19:51:15.664Z,3.10
2018-05-10T19:53:44.934Z,3.03
2018-05-10T19:56:15.947Z,3.40
2018-05-10T19:58:45.335Z,2.80
2018-05-10T20:01:16.370Z,2.97
2018-05-10T20:03:47.459Z,3.00
2018-05-10T20:06:18.461Z,3.63
2018-05-10T20:08:48.996Z,2.70
2018-05-10T20:11:20.161Z,3.60
2018-05-10T20:13:49.495Z,2.63
2018-05-10T20:16:18.240Z,3.47
2018-05-10T20:18:48.541Z,2.57
2018-05-10T20:21:19.584Z,3.03
2018-05-10T20:23:48.703Z,3.43
2018-05-10T20:26:18.883Z,2.60
2018-05-10T20:28:47.672Z,3.30
2018-05-10T20:31:18.294Z,3.43
2018-05-10T20:33:47.710Z,3.30
2018-05-10T20:36:16.832Z,2.83
2018-05-10T20:38:46.330Z,2.90
2018-05-10T20:41:17.532Z,3.27
2018-05-10T20:43:48.132Z,3.30
2018-05-10T20:46:17.499Z,3.93
2018-05-10T20:48:48.306Z,3.40
2018-05-10T20:51:18.944Z,3.20
2018-05-10T20:53:50.625Z,3.13
2018-05-10T20:56:21.464Z,3.80
2018-05-10T20:58:52.636Z,3.17
2018-05-10T21:01:22.708Z,3.07
2018-05-10T21:03:54.174Z,3.30
2018-05-10T21:06:23.412Z,3.57
2018-05-10T21:08:55.013Z,3.70
2018-05-10T21:11:24.734Z,3.50
2018-05-10T21:13:54.985Z,3.57
2018-05-10T21:16:26.448Z,3.60
2018-05-10T21:18:57.467Z,3.70
2018-05-10T21:21:26.722Z,3.27
2018-05-10T21:23:55.936Z,3.40
2018-05-10T21:26:25.461Z,3.67
2018-05-10T21:28:54.514Z,3.70
2018-05-10T21:31:23.733Z,3.57
2018-05-10T21:33:53.134Z,3.97
2018-05-10T21:36:23.445Z,3.97
2018-05-10T21:38:54.215Z,3.30
2018-05-10T21:41:24.728Z,3.80
2018-05-10T21:43:55.933Z,4.00
2018-05-10T21:46:24.980Z,3.77
2018-05-10T21:48:56.641Z,3.80
2018-05-10T21:51:27.577Z,4.20
2018-05-10T21:53:58.155Z,3.77
2018-05-10T21:56:27.597Z,3.40
2018-05-10T21:58:56.996Z,3.93
2018-05-10T22:01:28.338Z,4.57
2018-05-10T22:04:00.021Z,3.73
2018-05-10T22:06:29.306Z,4.30
2018-05-10T22:09:00.159Z,4.10
2018-05-10T22:11:29.681Z,4.23
2018-05-10T22:13:59.220Z,4.33
2018-05-10T22:16:31.749Z,4.47
2018-05-10T22:19:01.297Z,5.40
2018-05-10T22:21:32.284Z,4.50
2018-05-10T22:24:03.466Z,5.33
2018-05-10T22:26:32.741Z,5.97
2018-05-10T22:29:03.675Z,5.63
2018-05-10T22:31:33.595Z,5.27
2018-05-10T22:34:03.812Z,6.17
2018-05-10T22:36:34.564Z,5.63
2018-05-10T22:39:04.713Z,6.07
2018-05-10T22:41:35.411Z,5.80
2018-05-10T22:44:06.100Z,5.20
2018-05-10T22:46:35.485Z,5.33
2018-05-10T22:49:06.125Z,5.80
2018-05-10T22:51:35.429Z,6.27
2018-05-10T22:54:06.282Z,5.60
2018-05-10T22:56:35.787Z,6.83
2018-05-10T22:59:05.711Z,5.83
2018-05-10T23:01:36.040Z,6.50
2018-05-10T23:04:08.764Z,5.57
2018-05-10T23:06:38.117Z,6.20
2018-05-10T23:09:07.815Z,6.10
2018-05-10T23:11:38.808Z,6.53
2018-05-10T23:14:08.113Z,6.47
2018-05-10T23:16:38.672Z,5.57
2018-05-10T23:19:09.414Z,6.83
2018-05-10T23:21:39.022Z,6.60
2018-05-10T23:24:10.447Z,5.90
2018-05-10T23:26:41.634Z,6.80
2018-05-10T23:29:11.109Z,7.10
2018-05-10T23:31:41.945Z,6.30
2018-05-10T23:34:12.570Z,5.83
2018-05-10T23:36:42.885Z,6.47
2018-05-10T23:39:13.905Z,6.47
2018-05-10T23:41:44.516Z,6.17
2018-05-10T23:44:13.726Z,7.53
2018-05-10T23:46:44.883Z,7.13
2018-05-10T23:49:15.740Z,7.63
2018-05-10T23:51:46.351Z,7.43
2018-05-10T23:54:17.099Z,7.70
2018-05-10T23:56:46.266Z,6.97
2018-05-10T23:59:16.117Z,6.97
